• Join FlightAware (Why Join?)
  • Login
  • US Flag 
11:56PM EST


 

Airport Tracker/Info


-or-


 

Live Flight TrackerFlight Track Log ✈ N51577 ✈ 30-Apr-2013 ✈ KANE - KMML

Flight Track Log - Related Links

Times and Time Zones

All times are in EDT time to prevent confusion due to time zone crossing. See the N51577 flight status page for this flight to view local times or setup timezone preferences in your user account.

Time Position Orientation Groundspeed Altitude Reporting Facility
EDT Latitude Longitude Course Direction KTS MPH feet Rate Location/Type
06:05PM 45.1500 -93.2500 250° West 68 78 1,800  Level Minneapolis TRACON
06:06PM 45.1500 -93.2833 270° West 69 79 2,200 480 Climbing Minneapolis TRACON
06:07PM 45.1453 -93.2853 196° South 69 79 2,400 420 Climbing Minneapolis Center
06:08PM 45.1392 -93.3111 251° West 70 81 2,800 420 Climbing Minneapolis Center
06:09PM 45.1319 -93.3367 248° West 70 81 3,300 420 Climbing Minneapolis Center
06:10PM 45.1256 -93.3628 251° West 70 81 3,700 360 Climbing Minneapolis Center
06:11PM 45.0976 -93.3979 250° West  Level Estimated
06:11PM 45.1192 -93.3900 252° West 73 84 4,100  Level Minneapolis Center
06:12PM 45.1122 -93.4150 249° West 83 96 4,100  Level Minneapolis Center
06:13PM 45.0997 -93.4631 250° West 93 107 4,100  Level Minneapolis Center
06:14PM 45.0911 -93.4975 251° West 94 108 4,100  Level Minneapolis Center
06:15PM 45.0822 -93.5322 250° West 95 109 4,100  Level Minneapolis Center
06:16PM 45.0728 -93.5667 249° West 95 109 4,100  Level Minneapolis Center
06:17PM 45.0642 -93.6006 250° West 92 106 4,100  Level Minneapolis Center
06:18PM 45.0556 -93.6344 250° West 92 106 4,100  Level Minneapolis Center
06:19PM 45.0447 -93.6750 249° West 93 107 4,100  Level Minneapolis Center
06:20PM 45.0358 -93.7081 249° West 91 105 4,100  Level Minneapolis Center
06:21PM 45.0281 -93.7397 251° West 86 99 4,100  Level Minneapolis Center
06:22PM 45.0194 -93.7742 251° West 93 107 4,100  Level Minneapolis Center
06:23PM 45.0117 -93.8011 248° West 93 107 4,100  Level Minneapolis Center
06:24PM 45.0008 -93.8428 250° West 94 108 4,100  Level Minneapolis Center
06:25PM 44.9897 -93.8828 249° West 92 106 4,100  Level Minneapolis Center
06:26PM 44.9808 -93.9150 249° West 89 102 4,100  Level Minneapolis Center
06:27PM 44.9722 -93.9486 250° West 91 105 4,100  Level Minneapolis Center
06:28PM 44.9628 -93.9811 248° West 91 105 4,100  Level Minneapolis Center
06:29PM 44.9547 -94.0131 250° West 88 101 4,100  Level Minneapolis Center
06:30PM 44.9439 -94.0517 248° West 88 101 4,100  Level Minneapolis Center
06:31PM 44.9350 -94.0878 251° West 97 112 4,100  Level Minneapolis Center
06:32PM 44.9258 -94.1208 249° West 92 106 4,100  Level Minneapolis Center
06:33PM 44.9175 -94.1536 250° West 90 104 4,100  Level Minneapolis Center
06:34PM 44.9081 -94.1864 248° West 90 104 4,100  Level Minneapolis Center
06:35PM 44.8994 -94.2169 248° West 86 99 4,100  Level Minneapolis Center
06:36PM 44.8894 -94.2583 251° West 92 106 4,100  Level Minneapolis Center
06:37PM 44.8800 -94.2936 249° West 97 112 4,100  Level Minneapolis Center
06:39PM 44.8703 -94.3286 249° West 98 113 4,100  Level Minneapolis Center
06:40PM 44.8611 -94.3619 249° West 93 107 4,100  Level Minneapolis Center
06:41PM 44.8517 -94.3981 250° West 100 115 4,100  Level Minneapolis Center
06:42PM 44.8428 -94.4322 250° West 94 108 4,100  Level Minneapolis Center
06:43PM 44.8317 -94.4739 249° West 95 109 4,100  Level Minneapolis Center
06:44PM 44.8211 -94.5078 246° West 92 106 4,100  Level Minneapolis Center
06:45PM 44.8122 -94.5417 250° West 90 104 4,100  Level Minneapolis Center
06:46PM 44.8028 -94.5758 249° West 91 105 4,100  Level Minneapolis Center
06:47PM 44.7931 -94.6103 248° West 93 107 4,100  Level Minneapolis Center
06:48PM 44.7825 -94.6481 249° West 93 107 4,100  Level Minneapolis Center
06:49PM 44.7728 -94.6817 248° West 92 106 4,100  Level Minneapolis Center
06:50PM 44.7636 -94.7147 249° West 92 106 4,100  Level Minneapolis Center
06:51PM 44.7550 -94.7478 250° West 91 105 4,100  Level Minneapolis Center
06:52PM 44.7431 -94.7903 248° West 97 112 4,100  Level Minneapolis Center
06:53PM 44.7331 -94.8256 248° West 97 112 4,100  Level Minneapolis Center
06:54PM 44.7239 -94.8619 250° West 99 114 4,100  Level Minneapolis Center
06:55PM 44.7136 -94.8944 246° West 94 108 4,100  Level Minneapolis Center
06:56PM 44.7044 -94.9286 249° West 92 106 4,100  Level Minneapolis Center
06:57PM 44.6947 -94.9697 252° West 93 107 4,100  Level Minneapolis Center
06:58PM 44.6828 -95.0089 247° West 91 105 4,100 -60 Level Minneapolis Center
06:59PM 44.6736 -95.0433 249° West 93 107 4,000 -60 Descending Minneapolis Center
07:00PM 44.6644 -95.0783 250° West 95 109 4,000  Level Minneapolis Center
07:01PM 44.6539 -95.1103 245° Southwest 93 107 4,100  Climbing Minneapolis Center
07:02PM 44.6444 -95.1433 248° West 92 106 4,100 -60 Level Minneapolis Center
07:04PM 44.6358 -95.1756 249° West 91 105 4,000 -60 Descending Minneapolis Center
07:05PM 44.6228 -95.2197 247° West 88 101 4,000  Level Minneapolis Center
07:06PM 44.6139 -95.2500 248° West 86 99 4,000  Level Minneapolis Center
07:07PM 44.6069 -95.2744 248° West 85 98 4,000  Level Minneapolis Center
07:08PM 44.5972 -95.3139 251° West 87 100 4,100  Climbing Minneapolis Center
07:09PM 44.5872 -95.3481 248° West 90 104 4,100  Level Minneapolis Center
07:10PM 44.5753 -95.3917 249° West 96 110 4,100  Level Minneapolis Center
07:11PM 44.5628 -95.4344 248° West 99 114 4,100 -60 Level Minneapolis Center
07:12PM 44.5522 -95.4700 247° West 99 114 4,000  Descending Minneapolis Center
07:13PM 44.5425 -95.5064 249° West 99 114 4,100 60 Climbing Minneapolis Center